sensor_id;sensor_type;location;lat;lon;timestamp;temperature;humidity
67572;SHT31;54397;47.506;19.158;2023-07-08T00:01:21;21.50;66.10
67572;SHT31;54397;47.506;19.158;2023-07-08T00:04:44;21.30;66.00
67572;SHT31;54397;47.506;19.158;2023-07-08T00:08:16;21.18;66.88
67572;SHT31;54397;47.506;19.158;2023-07-08T00:11:38;21.22;67.09
67572;SHT31;54397;47.506;19.158;2023-07-08T00:15:00;21.26;66.65
67572;SHT31;54397;47.506;19.158;2023-07-08T00:18:24;21.22;66.89
67572;SHT31;54397;47.506;19.158;2023-07-08T00:21:46;21.16;66.76
67572;SHT31;54397;47.506;19.158;2023-07-08T00:25:12;21.20;66.37
67572;SHT31;54397;47.506;19.158;2023-07-08T00:28:34;21.05;66.60
67572;SHT31;54397;47.506;19.158;2023-07-08T00:31:58;21.08;66.52
67572;SHT31;54397;47.506;19.158;2023-07-08T00:38:51;20.91;66.90
67572;SHT31;54397;47.506;19.158;2023-07-08T00:42:18;20.94;66.63
67572;SHT31;54397;47.506;19.158;2023-07-08T00:45:49;20.96;66.74
67572;SHT31;54397;47.506;19.158;2023-07-08T00:56:54;20.84;66.19
67572;SHT31;54397;47.506;19.158;2023-07-08T01:00:18;20.72;65.03
67572;SHT31;54397;47.506;19.158;2023-07-08T01:07:12;20.67;66.43
67572;SHT31;54397;47.506;19.158;2023-07-08T01:10:46;20.60;65.91
67572;SHT31;54397;47.506;19.158;2023-07-08T01:14:11;20.55;66.60
67572;SHT31;54397;47.506;19.158;2023-07-08T01:17:34;20.54;66.39
67572;SHT31;54397;47.506;19.158;2023-07-08T01:21:00;20.60;66.39
67572;SHT31;54397;47.506;19.158;2023-07-08T01:24:22;20.61;66.50
67572;SHT31;54397;47.506;19.158;2023-07-08T01:27:47;20.55;65.82
67572;SHT31;54397;47.506;19.158;2023-07-08T01:31:09;20.55;64.90
67572;SHT31;54397;47.506;19.158;2023-07-08T01:34:35;20.61;64.55
67572;SHT31;54397;47.506;19.158;2023-07-08T01:38:03;20.17;67.20
67572;SHT31;54397;47.506;19.158;2023-07-08T01:41:29;20.23;67.59
67572;SHT31;54397;47.506;19.158;2023-07-08T01:44:51;20.26;67.59
67572;SHT31;54397;47.506;19.158;2023-07-08T01:48:15;20.17;67.25
67572;SHT31;54397;47.506;19.158;2023-07-08T01:51:40;20.14;67.91
67572;SHT31;54397;47.506;19.158;2023-07-08T01:55:05;20.12;68.14
67572;SHT31;54397;47.506;19.158;2023-07-08T01:58:27;20.12;68.20
67572;SHT31;54397;47.506;19.158;2023-07-08T02:01:51;20.16;67.78
67572;SHT31;54397;47.506;19.158;2023-07-08T02:05:17;20.23;67.45
67572;SHT31;54397;47.506;19.158;2023-07-08T02:08:39;20.19;67.17
67572;SHT31;54397;47.506;19.158;2023-07-08T02:12:00;19.97;67.65
67572;SHT31;54397;47.506;19.158;2023-07-08T02:15:22;19.93;68.43
67572;SHT31;54397;47.506;19.158;2023-07-08T02:18:44;19.81;68.64
67572;SHT31;54397;47.506;19.158;2023-07-08T02:22:05;19.81;68.95
67572;SHT31;54397;47.506;19.158;2023-07-08T02:25:28;19.83;68.85
67572;SHT31;54397;47.506;19.158;2023-07-08T02:28:50;19.86;68.52
67572;SHT31;54397;47.506;19.158;2023-07-08T02:32:12;19.86;68.80
67572;SHT31;54397;47.506;19.158;2023-07-08T02:35:36;19.87;68.97
67572;SHT31;54397;47.506;19.158;2023-07-08T02:38:58;19.82;68.73
67572;SHT31;54397;47.506;19.158;2023-07-08T02:42:19;19.82;69.00
67572;SHT31;54397;47.506;19.158;2023-07-08T02:45:46;19.82;68.95
67572;SHT31;54397;47.506;19.158;2023-07-08T02:49:12;19.76;69.42
67572;SHT31;54397;47.506;19.158;2023-07-08T02:52:34;19.72;69.40
67572;SHT31;54397;47.506;19.158;2023-07-08T02:55:56;19.68;69.21
67572;SHT31;54397;47.506;19.158;2023-07-08T02:59:20;19.62;69.08
67572;SHT31;54397;47.506;19.158;2023-07-08T03:02:42;19.57;69.32
67572;SHT31;54397;47.506;19.158;2023-07-08T03:06:06;19.48;69.42
67572;SHT31;54397;47.506;19.158;2023-07-08T03:09:30;19.51;69.40
67572;SHT31;54397;47.506;19.158;2023-07-08T03:12:55;19.50;69.71
67572;SHT31;54397;47.506;19.158;2023-07-08T03:16:19;19.39;70.18
67572;SHT31;54397;47.506;19.158;2023-07-08T03:19:41;19.34;70.50
67572;SHT31;54397;47.506;19.158;2023-07-08T03:23:05;19.41;70.61
67572;SHT31;54397;47.506;19.158;2023-07-08T03:26:27;19.39;70.66
67572;SHT31;54397;47.506;19.158;2023-07-08T03:29:52;19.45;70.76
67572;SHT31;54397;47.506;19.158;2023-07-08T03:33:14;19.48;70.64
67572;SHT31;54397;47.506;19.158;2023-07-08T03:36:45;19.53;70.43
67572;SHT31;54397;47.506;19.158;2023-07-08T03:40:10;19.59;70.28
67572;SHT31;54397;47.506;19.158;2023-07-08T03:43:32;19.64;70.20
67572;SHT31;54397;47.506;19.158;2023-07-08T03:46:56;19.74;69.78
67572;SHT31;54397;47.506;19.158;2023-07-08T03:50:22;19.75;69.94
67572;SHT31;54397;47.506;19.158;2023-07-08T03:53:47;19.76;69.78
67572;SHT31;54397;47.506;19.158;2023-07-08T03:57:09;19.79;69.46
67572;SHT31;54397;47.506;19.158;2023-07-08T04:00:33;19.89;69.88
67572;SHT31;54397;47.506;19.158;2023-07-08T04:03:56;19.96;69.37
67572;SHT31;54397;47.506;19.158;2023-07-08T04:07:18;19.97;69.06
67572;SHT31;54397;47.506;19.158;2023-07-08T04:10:42;20.03;68.64
67572;SHT31;54397;47.506;19.158;2023-07-08T04:14:08;20.08;68.49
67572;SHT31;54397;47.506;19.158;2023-07-08T04:17:30;20.08;68.55
67572;SHT31;54397;47.506;19.158;2023-07-08T04:20:52;20.10;68.54
67572;SHT31;54397;47.506;19.158;2023-07-08T04:24:17;20.14;68.76
67572;SHT31;54397;47.506;19.158;2023-07-08T04:27:39;20.24;68.33
67572;SHT31;54397;47.506;19.158;2023-07-08T04:31:04;20.41;68.08
67572;SHT31;54397;47.506;19.158;2023-07-08T04:34:26;20.45;67.09
67572;SHT31;54397;47.506;19.158;2023-07-08T04:37:53;20.36;66.05
67572;SHT31;54397;47.506;19.158;2023-07-08T04:41:18;20.52;66.47
67572;SHT31;54397;47.506;19.158;2023-07-08T04:44:43;20.67;65.47
67572;SHT31;54397;47.506;19.158;2023-07-08T04:48:07;20.72;65.20
67572;SHT31;54397;47.506;19.158;2023-07-08T04:51:34;20.81;65.25
67572;SHT31;54397;47.506;19.158;2023-07-08T04:55:00;20.91;64.56
67572;SHT31;54397;47.506;19.158;2023-07-08T04:58:22;21.03;63.43
67572;SHT31;54397;47.506;19.158;2023-07-08T05:01:47;21.16;63.61
67572;SHT31;54397;47.506;19.158;2023-07-08T05:05:10;21.30;63.47
67572;SHT31;54397;47.506;19.158;2023-07-08T05:08:32;21.39;62.75
67572;SHT31;54397;47.506;19.158;2023-07-08T05:11:54;21.33;62.20
67572;SHT31;54397;47.506;19.158;2023-07-08T05:15:16;21.22;62.44
67572;SHT31;54397;47.506;19.158;2023-07-08T05:18:37;21.20;63.78
67572;SHT31;54397;47.506;19.158;2023-07-08T05:22:02;21.25;63.53
67572;SHT31;54397;47.506;19.158;2023-07-08T05:25:23;21.25;63.86
67572;SHT31;54397;47.506;19.158;2023-07-08T05:28:49;21.30;64.45
67572;SHT31;54397;47.506;19.158;2023-07-08T05:32:10;21.63;63.55
67572;SHT31;54397;47.506;19.158;2023-07-08T05:35:32;21.95;62.70
67572;SHT31;54397;47.506;19.158;2023-07-08T05:38:57;22.25;62.22
67572;SHT31;54397;47.506;19.158;2023-07-08T05:42:22;22.55;59.20
67572;SHT31;54397;47.506;19.158;2023-07-08T05:45:46;22.67;58.92
67572;SHT31;54397;47.506;19.158;2023-07-08T05:49:30;22.79;59.68
67572;SHT31;54397;47.506;19.158;2023-07-08T05:52:57;23.14;56.54
67572;SHT31;54397;47.506;19.158;2023-07-08T05:56:26;23.21;57.54
67572;SHT31;54397;47.506;19.158;2023-07-08T05:59:48;23.18;57.28
67572;SHT31;54397;47.506;19.158;2023-07-08T06:03:13;23.03;55.20
67572;SHT31;54397;47.506;19.158;2023-07-08T06:06:37;22.94;57.06
67572;SHT31;54397;47.506;19.158;2023-07-08T06:09:58;22.83;57.70
67572;SHT31;54397;47.506;19.158;2023-07-08T06:13:23;22.91;57.14
67572;SHT31;54397;47.506;19.158;2023-07-08T06:16:44;22.91;56.15
67572;SHT31;54397;47.506;19.158;2023-07-08T06:20:08;23.12;55.95
67572;SHT31;54397;47.506;19.158;2023-07-08T06:23:30;23.53;54.52
67572;SHT31;54397;47.506;19.158;2023-07-08T06:26:51;23.72;53.81
67572;SHT31;54397;47.506;19.158;2023-07-08T06:30:16;23.62;53.35
67572;SHT31;54397;47.506;19.158;2023-07-08T06:33:42;23.76;53.32
67572;SHT31;54397;47.506;19.158;2023-07-08T06:37:05;24.13;52.68
67572;SHT31;54397;47.506;19.158;2023-07-08T06:40:27;24.14;52.76
67572;SHT31;54397;47.506;19.158;2023-07-08T06:43:49;24.28;52.04
67572;SHT31;54397;47.506;19.158;2023-07-08T06:47:13;24.52;51.09
67572;SHT31;54397;47.506;19.158;2023-07-08T06:50:35;24.68;50.16
67572;SHT31;54397;47.506;19.158;2023-07-08T06:53:57;24.48;50.24
67572;SHT31;54397;47.506;19.158;2023-07-08T06:57:28;24.57;49.74
67572;SHT31;54397;47.506;19.158;2023-07-08T07:00:49;24.79;49.56
67572;SHT31;54397;47.506;19.158;2023-07-08T07:04:13;25.37;49.34
67572;SHT31;54397;47.506;19.158;2023-07-08T07:07:35;25.80;48.71
67572;SHT31;54397;47.506;19.158;2023-07-08T07:10:56;25.80;45.59
67572;SHT31;54397;47.506;19.158;2023-07-08T07:14:19;26.08;47.06
67572;SHT31;54397;47.506;19.158;2023-07-08T07:17:46;26.33;46.35
67572;SHT31;54397;47.506;19.158;2023-07-08T07:21:08;26.56;46.70
67572;SHT31;54397;47.506;19.158;2023-07-08T07:24:32;26.84;46.10
67572;SHT31;54397;47.506;19.158;2023-07-08T07:27:54;26.74;46.14
67572;SHT31;54397;47.506;19.158;2023-07-08T07:31:18;27.28;46.28
67572;SHT31;54397;47.506;19.158;2023-07-08T07:34:40;27.49;44.11
67572;SHT31;54397;47.506;19.158;2023-07-08T07:38:02;27.54;40.43
67572;SHT31;54397;47.506;19.158;2023-07-08T07:41:24;27.02;41.90
67572;SHT31;54397;47.506;19.158;2023-07-08T07:44:46;27.36;43.10
67572;SHT31;54397;47.506;19.158;2023-07-08T07:48:08;26.99;43.53
67572;SHT31;54397;47.506;19.158;2023-07-08T07:51:30;26.87;44.82
67572;SHT31;54397;47.506;19.158;2023-07-08T07:54:54;27.41;44.78
67572;SHT31;54397;47.506;19.158;2023-07-08T07:58:18;27.21;42.98
67572;SHT31;54397;47.506;19.158;2023-07-08T08:01:42;27.08;44.67
67572;SHT31;54397;47.506;19.158;2023-07-08T08:05:07;27.19;44.30
67572;SHT31;54397;47.506;19.158;2023-07-08T08:08:29;27.74;44.62
67572;SHT31;54397;47.506;19.158;2023-07-08T08:11:51;27.47;41.84
67572;SHT31;54397;47.506;19.158;2023-07-08T08:15:13;27.38;43.02
67572;SHT31;54397;47.506;19.158;2023-07-08T08:18:35;27.02;42.50
67572;SHT31;54397;47.506;19.158;2023-07-08T08:21:56;26.92;42.41
67572;SHT31;54397;47.506;19.158;2023-07-08T08:25:22;27.35;43.80
67572;SHT31;54397;47.506;19.158;2023-07-08T08:28:44;28.00;40.92
67572;SHT31;54397;47.506;19.158;2023-07-08T08:32:06;27.84;41.53
67572;SHT31;54397;47.506;19.158;2023-07-08T08:35:28;27.90;41.81
67572;SHT31;54397;47.506;19.158;2023-07-08T08:38:50;28.08;40.02
67572;SHT31;54397;47.506;19.158;2023-07-08T08:46:05;28.19;41.90
67572;SHT31;54397;47.506;19.158;2023-07-08T08:49:42;28.59;38.79
67572;SHT31;54397;47.506;19.158;2023-07-08T08:53:11;28.76;39.82
67572;SHT31;54397;47.506;19.158;2023-07-08T09:00:07;28.60;39.33
67572;SHT31;54397;47.506;19.158;2023-07-08T09:07:17;29.18;36.62
67572;SHT31;54397;47.506;19.158;2023-07-08T09:14:19;28.72;37.06
67572;SHT31;54397;47.506;19.158;2023-07-08T09:17:41;28.58;36.67
67572;SHT31;54397;47.506;19.158;2023-07-08T09:21:16;28.35;37.53
67572;SHT31;54397;47.506;19.158;2023-07-08T09:28:13;29.55;36.96
67572;SHT31;54397;47.506;19.158;2023-07-08T09:31:39;29.57;35.26
67572;SHT31;54397;47.506;19.158;2023-07-08T09:35:06;29.93;36.74
67572;SHT31;54397;47.506;19.158;2023-07-08T09:38:29;30.41;35.45
67572;SHT31;54397;47.506;19.158;2023-07-08T09:41:50;29.37;34.83
67572;SHT31;54397;47.506;19.158;2023-07-08T09:45:18;29.71;36.79
67572;SHT31;54397;47.506;19.158;2023-07-08T09:48:42;29.45;37.69
67572;SHT31;54397;47.506;19.158;2023-07-08T09:52:06;29.02;36.81
67572;SHT31;54397;47.506;19.158;2023-07-08T09:55:28;28.31;37.24
67572;SHT31;54397;47.506;19.158;2023-07-08T09:58:50;28.25;38.80
67572;SHT31;54397;47.506;19.158;2023-07-08T10:05:56;27.81;36.71
67572;SHT31;54397;47.506;19.158;2023-07-08T10:09:24;27.62;37.50
67572;SHT31;54397;47.506;19.158;2023-07-08T10:12:53;28.27;36.66
67572;SHT31;54397;47.506;19.158;2023-07-08T10:16:26;29.04;37.71
67572;SHT31;54397;47.506;19.158;2023-07-08T10:19:49;30.16;35.37
67572;SHT31;54397;47.506;19.158;2023-07-08T10:31:33;29.86;34.61
67572;SHT31;54397;47.506;19.158;2023-07-08T10:35:17;30.14;34.26
67572;SHT31;54397;47.506;19.158;2023-07-08T10:50:07;30.06;35.15
67572;SHT31;54397;47.506;19.158;2023-07-08T10:53:54;30.71;34.91
67572;SHT31;54397;47.506;19.158;2023-07-08T11:08:23;29.10;36.55
67572;SHT31;54397;47.506;19.158;2023-07-08T11:15:56;28.69;36.71
67572;SHT31;54397;47.506;19.158;2023-07-08T11:19:20;28.69;37.77
67572;SHT31;54397;47.506;19.158;2023-07-08T11:22:59;28.87;39.01
67572;SHT31;54397;47.506;19.158;2023-07-08T11:26:33;29.27;36.52
67572;SHT31;54397;47.506;19.158;2023-07-08T11:30:13;29.54;35.25
67572;SHT31;54397;47.506;19.158;2023-07-08T11:33:38;29.44;34.76
67572;SHT31;54397;47.506;19.158;2023-07-08T11:37:02;29.86;36.36
67572;SHT31;54397;47.506;19.158;2023-07-08T11:40:24;30.14;34.80
67572;SHT31;54397;47.506;19.158;2023-07-08T11:43:59;29.63;35.22
67572;SHT31;54397;47.506;19.158;2023-07-08T11:47:26;30.17;35.95
67572;SHT31;54397;47.506;19.158;2023-07-08T11:50:53;30.12;35.62
67572;SHT31;54397;47.506;19.158;2023-07-08T11:57:42;29.28;35.34
67572;SHT31;54397;47.506;19.158;2023-07-08T12:05:02;29.73;35.16
67572;SHT31;54397;47.506;19.158;2023-07-08T12:08:37;29.92;34.14
67572;SHT31;54397;47.506;19.158;2023-07-08T12:12:17;29.90;35.17
67572;SHT31;54397;47.506;19.158;2023-07-08T12:15:39;29.79;33.62
67572;SHT31;54397;47.506;19.158;2023-07-08T12:19:02;29.42;34.60
67572;SHT31;54397;47.506;19.158;2023-07-08T12:22:28;29.31;34.16
67572;SHT31;54397;47.506;19.158;2023-07-08T12:25:51;29.42;34.81
67572;SHT31;54397;47.506;19.158;2023-07-08T12:29:13;29.73;35.73
67572;SHT31;54397;47.506;19.158;2023-07-08T12:32:39;30.20;34.40
67572;SHT31;54397;47.506;19.158;2023-07-08T12:36:04;30.17;35.23
67572;SHT31;54397;47.506;19.158;2023-07-08T12:39:26;30.43;35.90
67572;SHT31;54397;47.506;19.158;2023-07-08T12:42:47;30.53;32.92
67572;SHT31;54397;47.506;19.158;2023-07-08T12:46:11;30.27;35.45
67572;SHT31;54397;47.506;19.158;2023-07-08T12:49:33;29.92;33.41
67572;SHT31;54397;47.506;19.158;2023-07-08T12:52:55;29.96;33.09
67572;SHT31;54397;47.506;19.158;2023-07-08T12:56:26;29.65;34.11
67572;SHT31;54397;47.506;19.158;2023-07-08T12:59:48;29.66;33.96
67572;SHT31;54397;47.506;19.158;2023-07-08T13:03:21;29.00;34.19
67572;SHT31;54397;47.506;19.158;2023-07-08T13:06:46;29.15;33.99
67572;SHT31;54397;47.506;19.158;2023-07-08T13:10:17;29.45;34.58
67572;SHT31;54397;47.506;19.158;2023-07-08T13:13:54;29.82;34.33
67572;SHT31;54397;47.506;19.158;2023-07-08T13:17:19;30.02;35.14
67572;SHT31;54397;47.506;19.158;2023-07-08T13:20:45;30.53;33.73
67572;SHT31;54397;47.506;19.158;2023-07-08T13:24:10;30.78;33.53
67572;SHT31;54397;47.506;19.158;2023-07-08T13:27:35;30.72;33.22
67572;SHT31;54397;47.506;19.158;2023-07-08T13:31:01;30.53;32.63
67572;SHT31;54397;47.506;19.158;2023-07-08T13:34:25;30.17;33.14
67572;SHT31;54397;47.506;19.158;2023-07-08T13:37:50;30.34;33.71
67572;SHT31;54397;47.506;19.158;2023-07-08T13:41:20;30.54;33.88
67572;SHT31;54397;47.506;19.158;2023-07-08T13:44:46;30.41;32.73
67572;SHT31;54397;47.506;19.158;2023-07-08T13:48:18;30.17;32.67
67572;SHT31;54397;47.506;19.158;2023-07-08T13:51:43;29.96;33.80
67572;SHT31;54397;47.506;19.158;2023-07-08T13:55:16;29.86;33.10
67572;SHT31;54397;47.506;19.158;2023-07-08T13:58:45;30.00;34.89
67572;SHT31;54397;47.506;19.158;2023-07-08T14:02:17;30.31;34.73
67572;SHT31;54397;47.506;19.158;2023-07-08T14:05:42;30.51;34.25
67572;SHT31;54397;47.506;19.158;2023-07-08T14:09:15;30.57;33.78
67572;SHT31;54397;47.506;19.158;2023-07-08T14:12:38;30.60;33.07
67572;SHT31;54397;47.506;19.158;2023-07-08T14:16:01;30.61;32.96
67572;SHT31;54397;47.506;19.158;2023-07-08T14:19:30;30.65;33.79
67572;SHT31;54397;47.506;19.158;2023-07-08T14:22:58;30.72;33.83
67572;SHT31;54397;47.506;19.158;2023-07-08T14:26:22;30.74;33.67
67572;SHT31;54397;47.506;19.158;2023-07-08T14:29:50;30.84;33.42
67572;SHT31;54397;47.506;19.158;2023-07-08T14:33:12;30.27;34.04
67572;SHT31;54397;47.506;19.158;2023-07-08T14:36:37;30.37;33.83
67572;SHT31;54397;47.506;19.158;2023-07-08T14:39:59;30.40;34.42
67572;SHT31;54397;47.506;19.158;2023-07-08T14:43:26;30.43;33.55
67572;SHT31;54397;47.506;19.158;2023-07-08T14:46:49;30.44;33.65
67572;SHT31;54397;47.506;19.158;2023-07-08T14:50:18;30.38;33.16
67572;SHT31;54397;47.506;19.158;2023-07-08T14:53:40;30.26;33.31
67572;SHT31;54397;47.506;19.158;2023-07-08T14:57:03;29.71;33.04
67572;SHT31;54397;47.506;19.158;2023-07-08T15:00:28;29.68;33.82
67572;SHT31;54397;47.506;19.158;2023-07-08T15:03:50;29.78;34.39
67572;SHT31;54397;47.506;19.158;2023-07-08T15:07:12;29.85;34.46
67572;SHT31;54397;47.506;19.158;2023-07-08T15:10:34;29.96;35.03
67572;SHT31;54397;47.506;19.158;2023-07-08T15:13:56;30.19;34.83
67572;SHT31;54397;47.506;19.158;2023-07-08T15:17:18;30.00;33.48
67572;SHT31;54397;47.506;19.158;2023-07-08T15:20:42;29.72;34.83
67572;SHT31;54397;47.506;19.158;2023-07-08T15:24:06;29.72;34.76
67572;SHT31;54397;47.506;19.158;2023-07-08T15:27:28;29.86;34.75
67572;SHT31;54397;47.506;19.158;2023-07-08T15:30:50;29.92;34.49
67572;SHT31;54397;47.506;19.158;2023-07-08T15:34:14;29.95;34.75
67572;SHT31;54397;47.506;19.158;2023-07-08T15:37:36;30.00;34.95
67572;SHT31;54397;47.506;19.158;2023-07-08T15:40:58;29.99;34.99
67572;SHT31;54397;47.506;19.158;2023-07-08T15:44:20;29.89;35.04
67572;SHT31;54397;47.506;19.158;2023-07-08T15:47:42;29.83;34.44
67572;SHT31;54397;47.506;19.158;2023-07-08T15:51:04;29.76;34.80
67572;SHT31;54397;47.506;19.158;2023-07-08T15:54:28;29.75;35.08
67572;SHT31;54397;47.506;19.158;2023-07-08T15:57:56;29.65;34.22
67572;SHT31;54397;47.506;19.158;2023-07-08T16:01:22;29.61;34.51
67572;SHT31;54397;47.506;19.158;2023-07-08T16:04:45;29.54;34.16
67572;SHT31;54397;47.506;19.158;2023-07-08T16:08:08;29.41;33.25
67572;SHT31;54397;47.506;19.158;2023-07-08T16:11:31;29.28;34.32
67572;SHT31;54397;47.506;19.158;2023-07-08T16:14:52;29.18;34.41
67572;SHT31;54397;47.506;19.158;2023-07-08T16:18:18;29.27;35.35
67572;SHT31;54397;47.506;19.158;2023-07-08T16:21:40;29.31;35.71
67572;SHT31;54397;47.506;19.158;2023-07-08T16:25:05;29.30;35.34
67572;SHT31;54397;47.506;19.158;2023-07-08T16:31:51;29.20;35.38
67572;SHT31;54397;47.506;19.158;2023-07-08T16:35:16;29.14;35.69
67572;SHT31;54397;47.506;19.158;2023-07-08T16:38:41;29.18;35.97
67572;SHT31;54397;47.506;19.158;2023-07-08T16:42:02;29.11;36.29
67572;SHT31;54397;47.506;19.158;2023-07-08T16:45:26;28.99;35.23
67572;SHT31;54397;47.506;19.158;2023-07-08T16:48:48;28.89;35.96
67572;SHT31;54397;47.506;19.158;2023-07-08T16:52:13;28.80;36.46
67572;SHT31;54397;47.506;19.158;2023-07-08T16:55:35;28.76;36.41
67572;SHT31;54397;47.506;19.158;2023-07-08T16:58:57;28.66;36.38
67572;SHT31;54397;47.506;19.158;2023-07-08T17:02:21;28.58;36.83
67572;SHT31;54397;47.506;19.158;2023-07-08T17:05:46;28.53;37.06
67572;SHT31;54397;47.506;19.158;2023-07-08T17:09:12;28.45;37.02
67572;SHT31;54397;47.506;19.158;2023-07-08T17:12:34;28.39;36.86
67572;SHT31;54397;47.506;19.158;2023-07-08T17:15:56;28.32;37.32
67572;SHT31;54397;47.506;19.158;2023-07-08T17:19:17;28.28;37.80
67572;SHT31;54397;47.506;19.158;2023-07-08T17:22:39;28.27;38.03
67572;SHT31;54397;47.506;19.158;2023-07-08T17:26:01;28.21;38.10
67572;SHT31;54397;47.506;19.158;2023-07-08T17:29:25;28.12;38.40
67572;SHT31;54397;47.506;19.158;2023-07-08T17:32:51;28.05;38.73
67572;SHT31;54397;47.506;19.158;2023-07-08T17:36:18;27.98;39.06
67572;SHT31;54397;47.506;19.158;2023-07-08T17:39:43;27.90;39.17
67572;SHT31;54397;47.506;19.158;2023-07-08T17:43:07;27.83;39.63
67572;SHT31;54397;47.506;19.158;2023-07-08T17:46:29;27.70;39.66
67572;SHT31;54397;47.506;19.158;2023-07-08T17:49:55;27.69;40.37
67572;SHT31;54397;47.506;19.158;2023-07-08T17:53:17;27.60;40.54
67572;SHT31;54397;47.506;19.158;2023-07-08T17:56:45;27.45;41.58
67572;SHT31;54397;47.506;19.158;2023-07-08T18:00:21;27.43;41.90
67572;SHT31;54397;47.506;19.158;2023-07-08T18:03:45;27.41;41.96
67572;SHT31;54397;47.506;19.158;2023-07-08T18:07:07;27.32;42.69
67572;SHT31;54397;47.506;19.158;2023-07-08T18:10:30;27.28;47.60
67572;SHT31;54397;47.506;19.158;2023-07-08T18:13:53;27.19;48.01
67572;SHT31;54397;47.506;19.158;2023-07-08T18:17:18;27.06;46.26
67572;SHT31;54397;47.506;19.158;2023-07-08T18:20:52;27.05;48.11
67572;SHT31;54397;47.506;19.158;2023-07-08T18:24:14;26.98;48.16
67572;SHT31;54397;47.506;19.158;2023-07-08T18:27:37;26.91;47.34
67572;SHT31;54397;47.506;19.158;2023-07-08T18:31:04;26.58;46.58
67572;SHT31;54397;47.506;19.158;2023-07-08T18:34:29;26.35;47.31
67572;SHT31;54397;47.506;19.158;2023-07-08T18:37:52;26.33;46.48
67572;SHT31;54397;47.506;19.158;2023-07-08T18:41:20;26.35;45.58
67572;SHT31;54397;47.506;19.158;2023-07-08T18:44:47;26.36;45.60
67572;SHT31;54397;47.506;19.158;2023-07-08T18:48:11;26.32;45.83
67572;SHT31;54397;47.506;19.158;2023-07-08T18:51:39;26.23;46.27
67572;SHT31;54397;47.506;19.158;2023-07-08T18:55:01;26.18;47.12
67572;SHT31;54397;47.506;19.158;2023-07-08T18:58:24;26.08;46.55
67572;SHT31;54397;47.506;19.158;2023-07-08T19:01:49;26.03;48.90
67572;SHT31;54397;47.506;19.158;2023-07-08T19:05:16;25.89;49.54
67572;SHT31;54397;47.506;19.158;2023-07-08T19:08:39;25.82;50.36
67572;SHT31;54397;47.506;19.158;2023-07-08T19:12:01;25.71;50.73
67572;SHT31;54397;47.506;19.158;2023-07-08T19:15:27;25.62;50.69
67572;SHT31;54397;47.506;19.158;2023-07-08T19:18:51;25.47;52.31
67572;SHT31;54397;47.506;19.158;2023-07-08T19:22:18;25.34;52.16
67572;SHT31;54397;47.506;19.158;2023-07-08T19:25:40;25.23;52.97
67572;SHT31;54397;47.506;19.158;2023-07-08T19:29:02;25.23;53.46
67572;SHT31;54397;47.506;19.158;2023-07-08T19:32:23;25.20;53.71
67572;SHT31;54397;47.506;19.158;2023-07-08T19:35:46;25.03;54.46
67572;SHT31;54397;47.506;19.158;2023-07-08T19:39:10;24.85;54.75
67572;SHT31;54397;47.506;19.158;2023-07-08T19:42:53;24.73;55.27
67572;SHT31;54397;47.506;19.158;2023-07-08T19:46:17;24.58;56.05
67572;SHT31;54397;47.506;19.158;2023-07-08T19:49:39;24.54;56.01
67572;SHT31;54397;47.506;19.158;2023-07-08T19:53:01;24.42;57.06
67572;SHT31;54397;47.506;19.158;2023-07-08T19:56:23;24.14;57.20
67572;SHT31;54397;47.506;19.158;2023-07-08T19:59:53;24.11;57.78
67572;SHT31;54397;47.506;19.158;2023-07-08T20:03:17;24.20;57.61
67572;SHT31;54397;47.506;19.158;2023-07-08T20:06:39;24.11;57.65
67572;SHT31;54397;47.506;19.158;2023-07-08T20:10:03;24.04;58.27
67572;SHT31;54397;47.506;19.158;2023-07-08T20:13:32;24.01;58.06
67572;SHT31;54397;47.506;19.158;2023-07-08T20:16:54;23.93;58.76
67572;SHT31;54397;47.506;19.158;2023-07-08T20:20:21;23.80;59.18
67572;SHT31;54397;47.506;19.158;2023-07-08T20:23:45;23.65;59.57
67572;SHT31;54397;47.506;19.158;2023-07-08T20:27:11;23.42;60.12
67572;SHT31;54397;47.506;19.158;2023-07-08T20:30:33;23.18;60.74
67572;SHT31;54397;47.506;19.158;2023-07-08T20:33:55;23.10;60.49
67572;SHT31;54397;47.506;19.158;2023-07-08T20:37:19;22.93;61.17
67572;SHT31;54397;47.506;19.158;2023-07-08T20:40:41;22.84;60.95
67572;SHT31;54397;47.506;19.158;2023-07-08T20:44:03;22.91;60.24
67572;SHT31;54397;47.506;19.158;2023-07-08T20:47:27;23.06;59.40
67572;SHT31;54397;47.506;19.158;2023-07-08T20:50:49;23.14;58.97
67572;SHT31;54397;47.506;19.158;2023-07-08T20:54:14;23.21;59.07
67572;SHT31;54397;47.506;19.158;2023-07-08T20:57:36;23.14;60.13
67572;SHT31;54397;47.506;19.158;2023-07-08T21:00:58;23.04;60.66
67572;SHT31;54397;47.506;19.158;2023-07-08T21:04:20;22.98;60.87
67572;SHT31;54397;47.506;19.158;2023-07-08T21:07:44;23.01;60.78
67572;SHT31;54397;47.506;19.158;2023-07-08T21:11:09;22.73;61.53
67572;SHT31;54397;47.506;19.158;2023-07-08T21:14:35;22.73;61.67
67572;SHT31;54397;47.506;19.158;2023-07-08T21:17:57;22.76;61.19
67572;SHT31;54397;47.506;19.158;2023-07-08T21:21:22;22.76;61.72
67572;SHT31;54397;47.506;19.158;2023-07-08T21:24:46;22.79;61.99
67572;SHT31;54397;47.506;19.158;2023-07-08T21:28:25;22.76;61.76
67572;SHT31;54397;47.506;19.158;2023-07-08T21:31:47;22.73;62.09
67572;SHT31;54397;47.506;19.158;2023-07-08T21:35:09;22.66;62.67
67572;SHT31;54397;47.506;19.158;2023-07-08T21:38:35;22.59;62.86
67572;SHT31;54397;47.506;19.158;2023-07-08T21:41:59;22.43;63.51
67572;SHT31;54397;47.506;19.158;2023-07-08T21:45:29;22.49;63.57
67572;SHT31;54397;47.506;19.158;2023-07-08T21:48:55;22.35;63.85
67572;SHT31;54397;47.506;19.158;2023-07-08T21:52:19;22.18;64.23
67572;SHT31;54397;47.506;19.158;2023-07-08T21:55:41;22.04;64.26
67572;SHT31;54397;47.506;19.158;2023-07-08T21:59:15;21.80;65.07
67572;SHT31;54397;47.506;19.158;2023-07-08T22:02:44;21.68;65.48
67572;SHT31;54397;47.506;19.158;2023-07-08T22:06:09;21.70;65.06
67572;SHT31;54397;47.506;19.158;2023-07-08T22:09:33;21.51;65.62
67572;SHT31;54397;47.506;19.158;2023-07-08T22:12:55;21.54;65.58
67572;SHT31;54397;47.506;19.158;2023-07-08T22:16:19;21.45;65.39
67572;SHT31;54397;47.506;19.158;2023-07-08T22:19:43;21.33;66.23
67572;SHT31;54397;47.506;19.158;2023-07-08T22:23:10;21.33;66.37
67572;SHT31;54397;47.506;19.158;2023-07-08T22:26:38;21.23;66.23
67572;SHT31;54397;47.506;19.158;2023-07-08T22:30:02;21.27;66.72
67572;SHT31;54397;47.506;19.158;2023-07-08T22:33:24;21.35;66.31